sensor_id;sensor_type;location;lat;lon;timestamp;pressure;altitude;pressure_sealevel;temperature;humidity
76653;BME280;65563;45.970;12.680;2023-02-01T00:00:55;101856.75;;;1.48;69.93
76653;BME280;65563;45.970;12.680;2023-02-01T00:01:55;101854.94;;;1.36;70.21
76653;BME280;65563;45.970;12.680;2023-02-01T00:02:55;101854.00;;;1.37;70.90
76653;BME280;65563;45.970;12.680;2023-02-01T00:03:56;101854.16;;;1.48;70.66
76653;BME280;65563;45.970;12.680;2023-02-01T00:04:56;101851.84;;;1.56;70.22
76653;BME280;65563;45.970;12.680;2023-02-01T00:05:57;101857.69;;;1.34;70.31
76653;BME280;65563;45.970;12.680;2023-02-01T00:06:57;101856.69;;;1.62;70.01
76653;BME280;65563;45.970;12.680;2023-02-01T00:07:57;101853.09;;;1.63;69.57
76653;BME280;65563;45.970;12.680;2023-02-01T00:08:58;101859.19;;;1.64;69.98
76653;BME280;65563;45.970;12.680;2023-02-01T00:09:58;101858.88;;;1.69;69.74
76653;BME280;65563;45.970;12.680;2023-02-01T00:11:01;101867.97;;;1.63;69.30
76653;BME280;65563;45.970;12.680;2023-02-01T00:12:01;101863.06;;;1.58;69.78
76653;BME280;65563;45.970;12.680;2023-02-01T00:13:01;101860.72;;;1.54;69.30
76653;BME280;65563;45.970;12.680;2023-02-01T00:14:01;101861.06;;;1.62;68.98
76653;BME280;65563;45.970;12.680;2023-02-01T00:15:02;101850.16;;;1.68;68.96
76653;BME280;65563;45.970;12.680;2023-02-01T00:16:12;101854.56;;;1.67;68.95
76653;BME280;65563;45.970;12.680;2023-02-01T00:17:13;101854.44;;;1.43;69.86
76653;BME280;65563;45.970;12.680;2023-02-01T00:18:13;101848.47;;;1.41;70.21
76653;BME280;65563;45.970;12.680;2023-02-01T00:19:14;101847.44;;;1.44;69.82
76653;BME280;65563;45.970;12.680;2023-02-01T00:20:14;101851.94;;;1.42;69.42
76653;BME280;65563;45.970;12.680;2023-02-01T00:21:15;101850.47;;;1.51;69.22
76653;BME280;65563;45.970;12.680;2023-02-01T00:22:16;101840.84;;;1.51;69.14
76653;BME280;65563;45.970;12.680;2023-02-01T00:23:16;101850.06;;;1.44;68.74
76653;BME280;65563;45.970;12.680;2023-02-01T00:24:16;101851.22;;;1.53;68.73
76653;BME280;65563;45.970;12.680;2023-02-01T00:25:16;101855.06;;;1.47;68.95
76653;BME280;65563;45.970;12.680;2023-02-01T00:26:17;101856.56;;;1.51;68.82
76653;BME280;65563;45.970;12.680;2023-02-01T00:27:18;101861.06;;;1.49;68.83
76653;BME280;65563;45.970;12.680;2023-02-01T00:28:18;101862.31;;;1.56;69.14
76653;BME280;65563;45.970;12.680;2023-02-01T00:29:19;101865.25;;;1.52;69.28
76653;BME280;65563;45.970;12.680;2023-02-01T00:30:19;101858.94;;;1.54;69.32
76653;BME280;65563;45.970;12.680;2023-02-01T00:31:20;101854.59;;;1.55;69.42
76653;BME280;65563;45.970;12.680;2023-02-01T00:32:20;101857.09;;;1.56;69.53
76653;BME280;65563;45.970;12.680;2023-02-01T00:33:20;101859.81;;;1.55;69.40
76653;BME280;65563;45.970;12.680;2023-02-01T00:34:20;101850.19;;;1.55;70.04
76653;BME280;65563;45.970;12.680;2023-02-01T00:35:20;101850.59;;;1.49;69.99
76653;BME280;65563;45.970;12.680;2023-02-01T00:36:20;101854.22;;;1.47;70.03
76653;BME280;65563;45.970;12.680;2023-02-01T00:37:21;101856.00;;;1.46;69.36
76653;BME280;65563;45.970;12.680;2023-02-01T00:38:21;101848.16;;;1.46;70.01
76653;BME280;65563;45.970;12.680;2023-02-01T00:39:21;101854.13;;;1.35;69.78
76653;BME280;65563;45.970;12.680;2023-02-01T00:40:21;101854.00;;;1.37;69.80
76653;BME280;65563;45.970;12.680;2023-02-01T00:41:22;101855.81;;;1.49;69.82
76653;BME280;65563;45.970;12.680;2023-02-01T00:42:22;101851.38;;;1.37;69.68
76653;BME280;65563;45.970;12.680;2023-02-01T00:43:22;101859.03;;;1.40;70.64
76653;BME280;65563;45.970;12.680;2023-02-01T00:44:23;101859.03;;;1.40;70.36
76653;BME280;65563;45.970;12.680;2023-02-01T00:45:23;101855.19;;;1.46;70.61
76653;BME280;65563;45.970;12.680;2023-02-01T00:46:23;101849.91;;;1.33;70.69
76653;BME280;65563;45.970;12.680;2023-02-01T00:47:24;101850.41;;;1.25;70.86
76653;BME280;65563;45.970;12.680;2023-02-01T00:48:24;101850.50;;;1.11;71.06
76653;BME280;65563;45.970;12.680;2023-02-01T00:49:24;101844.81;;;1.04;71.69
76653;BME280;65563;45.970;12.680;2023-02-01T00:50:24;101856.59;;;0.84;71.78
76653;BME280;65563;45.970;12.680;2023-02-01T00:51:26;101860.06;;;0.98;72.17
76653;BME280;65563;45.970;12.680;2023-02-01T00:52:26;101856.34;;;1.14;71.11
76653;BME280;65563;45.970;12.680;2023-02-01T00:53:27;101866.31;;;1.22;71.38
76653;BME280;65563;45.970;12.680;2023-02-01T00:54:27;101868.09;;;1.22;71.84
76653;BME280;65563;45.970;12.680;2023-02-01T00:55:27;101863.38;;;1.14;72.45
76653;BME280;65563;45.970;12.680;2023-02-01T00:56:27;101867.41;;;1.32;72.83
76653;BME280;65563;45.970;12.680;2023-02-01T00:57:28;101871.00;;;1.44;71.04
76653;BME280;65563;45.970;12.680;2023-02-01T00:58:28;101866.06;;;1.39;70.52
76653;BME280;65563;45.970;12.680;2023-02-01T00:59:28;101862.50;;;1.40;70.25
76653;BME280;65563;45.970;12.680;2023-02-01T01:00:28;101862.91;;;1.34;70.39
76653;BME280;65563;45.970;12.680;2023-02-01T01:01:29;101861.75;;;1.38;70.71
76653;BME280;65563;45.970;12.680;2023-02-01T01:02:29;101864.25;;;1.40;70.77
76653;BME280;65563;45.970;12.680;2023-02-01T01:03:29;101864.97;;;1.29;71.03
76653;BME280;65563;45.970;12.680;2023-02-01T01:04:30;101868.94;;;1.22;70.91
76653;BME280;65563;45.970;12.680;2023-02-01T01:05:30;101864.78;;;1.32;70.58
76653;BME280;65563;45.970;12.680;2023-02-01T01:06:31;101859.53;;;1.32;70.66
76653;BME280;65563;45.970;12.680;2023-02-01T01:07:31;101868.97;;;1.35;70.57
76653;BME280;65563;45.970;12.680;2023-02-01T01:08:32;101863.94;;;1.32;71.24
76653;BME280;65563;45.970;12.680;2023-02-01T01:09:32;101871.66;;;1.21;71.57
76653;BME280;65563;45.970;12.680;2023-02-01T01:10:32;101876.28;;;1.30;71.42
76653;BME280;65563;45.970;12.680;2023-02-01T01:11:34;101866.03;;;1.27;71.25
76653;BME280;65563;45.970;12.680;2023-02-01T01:12:34;101862.66;;;1.25;70.71
76653;BME280;65563;45.970;12.680;2023-02-01T01:13:34;101866.88;;;1.27;70.73
76653;BME280;65563;45.970;12.680;2023-02-01T01:14:35;101866.63;;;1.17;71.31
76653;BME280;65563;45.970;12.680;2023-02-01T01:15:38;101861.31;;;1.32;70.65
76653;BME280;65563;45.970;12.680;2023-02-01T01:16:48;101863.41;;;1.27;70.83
76653;BME280;65563;45.970;12.680;2023-02-01T01:17:48;101860.38;;;1.33;71.03
76653;BME280;65563;45.970;12.680;2023-02-01T01:18:48;101858.91;;;1.29;71.38
76653;BME280;65563;45.970;12.680;2023-02-01T01:19:48;101860.81;;;1.27;70.45
76653;BME280;65563;45.970;12.680;2023-02-01T01:20:48;101853.03;;;1.25;70.73
76653;BME280;65563;45.970;12.680;2023-02-01T01:21:48;101853.69;;;1.29;70.57
76653;BME280;65563;45.970;12.680;2023-02-01T01:22:49;101857.75;;;1.33;70.12
76653;BME280;65563;45.970;12.680;2023-02-01T01:23:49;101847.28;;;1.33;70.47
76653;BME280;65563;45.970;12.680;2023-02-01T01:24:49;101853.59;;;1.30;70.58
76653;BME280;65563;45.970;12.680;2023-02-01T01:25:49;101852.19;;;1.25;71.30
76653;BME280;65563;45.970;12.680;2023-02-01T01:26:49;101855.16;;;1.33;70.68
76653;BME280;65563;45.970;12.680;2023-02-01T01:27:50;101854.50;;;1.16;70.75
76653;BME280;65563;45.970;12.680;2023-02-01T01:28:50;101855.53;;;1.14;71.34
76653;BME280;65563;45.970;12.680;2023-02-01T01:29:50;101856.88;;;1.07;71.72
76653;BME280;65563;45.970;12.680;2023-02-01T01:30:50;101868.03;;;0.96;72.20
76653;BME280;65563;45.970;12.680;2023-02-01T01:31:50;101861.66;;;1.00;72.21
76653;BME280;65563;45.970;12.680;2023-02-01T01:32:51;101854.75;;;0.99;72.38
76653;BME280;65563;45.970;12.680;2023-02-01T01:33:52;101852.78;;;1.03;72.15
76653;BME280;65563;45.970;12.680;2023-02-01T01:34:53;101860.25;;;0.94;71.75
76653;BME280;65563;45.970;12.680;2023-02-01T01:35:53;101857.41;;;0.85;71.98
76653;BME280;65563;45.970;12.680;2023-02-01T01:36:53;101852.53;;;0.93;71.96
76653;BME280;65563;45.970;12.680;2023-02-01T01:37:53;101856.09;;;0.92;72.39
76653;BME280;65563;45.970;12.680;2023-02-01T01:38:54;101857.44;;;0.98;72.08
76653;BME280;65563;45.970;12.680;2023-02-01T01:39:54;101855.19;;;1.06;71.86
76653;BME280;65563;45.970;12.680;2023-02-01T01:40:54;101856.91;;;1.19;71.23
76653;BME280;65563;45.970;12.680;2023-02-01T01:41:54;101856.91;;;1.19;70.70
76653;BME280;65563;45.970;12.680;2023-02-01T01:42:55;101858.97;;;1.14;71.04
76653;BME280;65563;45.970;12.680;2023-02-01T01:43:56;101867.22;;;1.08;71.79
76653;BME280;65563;45.970;12.680;2023-02-01T01:46:03;101854.44;;;1.04;71.83
76653;BME280;65563;45.970;12.680;2023-02-01T01:47:03;101854.75;;;0.99;72.03
76653;BME280;65563;45.970;12.680;2023-02-01T01:49:14;101852.28;;;1.10;72.34
76653;BME280;65563;45.970;12.680;2023-02-01T01:50:16;101856.03;;;1.19;71.92
76653;BME280;65563;45.970;12.680;2023-02-01T01:51:18;101855.22;;;1.18;71.48
76653;BME280;65563;45.970;12.680;2023-02-01T01:52:19;101854.25;;;1.07;71.92
76653;BME280;65563;45.970;12.680;2023-02-01T01:53:21;101854.88;;;1.10;71.19
76653;BME280;65563;45.970;12.680;2023-02-01T01:54:24;101854.84;;;0.98;72.42
76653;BME280;65563;45.970;12.680;2023-02-01T01:55:26;101857.59;;;0.82;72.60
76653;BME280;65563;45.970;12.680;2023-02-01T01:56:27;101854.25;;;0.80;72.00
76653;BME280;65563;45.970;12.680;2023-02-01T01:57:31;101858.13;;;0.87;72.15
76653;BME280;65563;45.970;12.680;2023-02-01T01:58:33;101855.63;;;0.85;72.34
76653;BME280;65563;45.970;12.680;2023-02-01T01:59:34;101852.00;;;0.74;72.71
76653;BME280;65563;45.970;12.680;2023-02-01T02:00:35;101846.47;;;0.92;72.50
76653;BME280;65563;45.970;12.680;2023-02-01T02:01:36;101849.78;;;0.94;72.34
76653;BME280;65563;45.970;12.680;2023-02-01T02:02:36;101846.91;;;0.99;72.05
76653;BME280;65563;45.970;12.680;2023-02-01T02:03:44;101844.81;;;1.04;72.04
76653;BME280;65563;45.970;12.680;2023-02-01T02:04:45;101849.47;;;1.13;71.74
76653;BME280;65563;45.970;12.680;2023-02-01T02:05:47;101845.91;;;1.14;71.62
76653;BME280;65563;45.970;12.680;2023-02-01T02:06:56;101840.91;;;1.24;70.82
76653;BME280;65563;45.970;12.680;2023-02-01T02:07:59;101841.09;;;1.21;71.41
76653;BME280;65563;45.970;12.680;2023-02-01T02:08:59;101840.22;;;1.08;71.79
76653;BME280;65563;45.970;12.680;2023-02-01T02:10:00;101837.81;;;1.05;71.33
76653;BME280;65563;45.970;12.680;2023-02-01T02:11:00;101832.88;;;1.00;71.11
76653;BME280;65563;45.970;12.680;2023-02-01T02:12:01;101825.78;;;1.02;71.60
76653;BME280;65563;45.970;12.680;2023-02-01T02:13:01;101832.69;;;1.03;71.37
76653;BME280;65563;45.970;12.680;2023-02-01T02:14:01;101834.63;;;1.27;71.52
76653;BME280;65563;45.970;12.680;2023-02-01T02:15:02;101830.25;;;1.40;70.40
76653;BME280;65563;45.970;12.680;2023-02-01T02:18:15;101827.31;;;1.32;70.34
76653;BME280;65563;45.970;12.680;2023-02-01T02:29:03;101820.59;;;1.28;70.53
76653;BME280;65563;45.970;12.680;2023-02-01T02:34:39;101801.34;;;1.29;70.17
76653;BME280;65563;45.970;12.680;2023-02-01T02:36:51;101805.34;;;1.34;69.83
76653;BME280;65563;45.970;12.680;2023-02-01T02:39:03;101808.47;;;1.39;69.24
76653;BME280;65563;45.970;12.680;2023-02-01T02:42:24;101805.34;;;1.47;68.48
76653;BME280;65563;45.970;12.680;2023-02-01T02:43:48;101806.41;;;1.45;68.86
76653;BME280;65563;45.970;12.680;2023-02-01T02:47:16;101803.06;;;1.55;68.52
76653;BME280;65563;45.970;12.680;2023-02-01T02:48:24;101803.56;;;1.60;68.17
76653;BME280;65563;45.970;12.680;2023-02-01T02:49:27;101797.38;;;1.61;68.05
76653;BME280;65563;45.970;12.680;2023-02-01T02:50:32;101808.47;;;1.65;67.99
76653;BME280;65563;45.970;12.680;2023-02-01T02:51:49;101805.03;;;1.64;67.66
76653;BME280;65563;45.970;12.680;2023-02-01T02:52:56;101797.19;;;1.64;67.50
76653;BME280;65563;45.970;12.680;2023-02-01T02:54:00;101800.34;;;1.70;67.88
76653;BME280;65563;45.970;12.680;2023-02-01T02:55:02;101797.59;;;1.71;67.79
76653;BME280;65563;45.970;12.680;2023-02-01T02:56:04;101807.25;;;1.71;67.76
76653;BME280;65563;45.970;12.680;2023-02-01T02:57:06;101800.13;;;1.73;67.29
76653;BME280;65563;45.970;12.680;2023-02-01T02:58:07;101806.28;;;1.72;67.69
76653;BME280;65563;45.970;12.680;2023-02-01T02:59:08;101799.38;;;1.71;67.35
76653;BME280;65563;45.970;12.680;2023-02-01T03:00:09;101794.69;;;1.76;67.36
76653;BME280;65563;45.970;12.680;2023-02-01T03:01:10;101800.97;;;1.73;67.69
76653;BME280;65563;45.970;12.680;2023-02-01T03:02:11;101797.31;;;1.76;67.58
76653;BME280;65563;45.970;12.680;2023-02-01T03:03:12;101796.97;;;1.67;67.89
76653;BME280;65563;45.970;12.680;2023-02-01T03:04:12;101802.00;;;1.71;67.67
76653;BME280;65563;45.970;12.680;2023-02-01T03:05:13;101801.56;;;1.64;68.22
76653;BME280;65563;45.970;12.680;2023-02-01T03:06:14;101803.16;;;1.66;68.03
76653;BME280;65563;45.970;12.680;2023-02-01T03:07:44;101797.59;;;1.71;67.75
76653;BME280;65563;45.970;12.680;2023-02-01T03:08:34;101802.75;;;1.73;67.94
76653;BME280;65563;45.970;12.680;2023-02-01T03:09:35;101799.81;;;1.77;68.30
76653;BME280;65563;45.970;12.680;2023-02-01T03:10:56;101801.59;;;1.77;68.00
76653;BME280;65563;45.970;12.680;2023-02-01T03:12:01;101803.88;;;1.81;67.95
76653;BME280;65563;45.970;12.680;2023-02-01T03:13:03;101797.81;;;1.81;67.99
76653;BME280;65563;45.970;12.680;2023-02-01T03:14:04;101803.88;;;1.81;68.19
76653;BME280;65563;45.970;12.680;2023-02-01T03:15:08;101800.22;;;1.84;68.53
76653;BME280;65563;45.970;12.680;2023-02-01T03:17:21;101805.66;;;1.81;68.19
76653;BME280;65563;45.970;12.680;2023-02-01T03:19:47;101796.44;;;1.88;67.78
76653;BME280;65563;45.970;12.680;2023-02-01T03:20:49;101796.13;;;1.92;68.16
76653;BME280;65563;45.970;12.680;2023-02-01T03:21:55;101800.72;;;1.89;67.94
76653;BME280;65563;45.970;12.680;2023-02-01T03:22:57;101800.72;;;1.89;68.21
76653;BME280;65563;45.970;12.680;2023-02-01T03:24:00;101803.13;;;1.92;68.16
76653;BME280;65563;45.970;12.680;2023-02-01T03:25:10;101800.53;;;1.92;68.21
76653;BME280;65563;45.970;12.680;2023-02-01T03:26:13;101800.84;;;1.87;68.21
76653;BME280;65563;45.970;12.680;2023-02-01T03:28:14;101803.69;;;1.84;69.39
76653;BME280;65563;45.970;12.680;2023-02-01T03:29:16;101803.38;;;1.76;69.81
76653;BME280;65563;45.970;12.680;2023-02-01T03:30:21;101802.94;;;1.82;69.08
76653;BME280;65563;45.970;12.680;2023-02-01T03:31:23;101800.75;;;1.76;69.68
76653;BME280;65563;45.970;12.680;2023-02-01T03:32:23;101798.13;;;1.76;69.59
76653;BME280;65563;45.970;12.680;2023-02-01T03:33:24;101801.81;;;1.86;69.05
76653;BME280;65563;45.970;12.680;2023-02-01T03:34:25;101805.03;;;1.90;68.92
76653;BME280;65563;45.970;12.680;2023-02-01T03:35:28;101795.06;;;1.95;68.64
76653;BME280;65563;45.970;12.680;2023-02-01T03:36:30;101800.31;;;1.95;68.31
76653;BME280;65563;45.970;12.680;2023-02-01T03:37:31;101799.34;;;1.96;68.68
76653;BME280;65563;45.970;12.680;2023-02-01T03:40:37;101807.34;;;1.95;69.09
76653;BME280;65563;45.970;12.680;2023-02-01T03:41:43;101809.22;;;1.92;69.09
76653;BME280;65563;45.970;12.680;2023-02-01T03:42:47;101810.38;;;1.88;69.03
76653;BME280;65563;45.970;12.680;2023-02-01T03:45:53;101810.81;;;1.70;69.99
76653;BME280;65563;45.970;12.680;2023-02-01T03:46:59;101811.53;;;1.72;69.90
76653;BME280;65563;45.970;12.680;2023-02-01T03:48:01;101804.09;;;1.78;70.38
76653;BME280;65563;45.970;12.680;2023-02-01T03:49:05;101807.34;;;1.82;70.21
76653;BME280;65563;45.970;12.680;2023-02-01T03:50:07;101808.41;;;1.79;69.73
76653;BME280;65563;45.970;12.680;2023-02-01T03:51:08;101811.75;;;1.81;69.95
76653;BME280;65563;45.970;12.680;2023-02-01T03:52:11;101810.69;;;1.84;69.52
76653;BME280;65563;45.970;12.680;2023-02-01T03:53:22;101811.53;;;1.84;69.60
76653;BME280;65563;45.970;12.680;2023-02-01T03:54:23;101802.72;;;1.60;70.15
76653;BME280;65563;45.970;12.680;2023-02-01T03:55:24;101802.19;;;1.42;71.77
76653;BME280;65563;45.970;12.680;2023-02-01T03:56:25;101799.16;;;1.35;71.64
76653;BME280;65563;45.970;12.680;2023-02-01T03:57:29;101807.34;;;1.56;71.37
76653;BME280;65563;45.970;12.680;2023-02-01T03:58:31;101807.03;;;1.48;70.97
76653;BME280;65563;45.970;12.680;2023-02-01T03:59:31;101805.66;;;1.42;71.71
76653;BME280;65563;45.970;12.680;2023-02-01T04:00:32;101803.06;;;1.55;71.82
76653;BME280;65563;45.970;12.680;2023-02-01T04:01:32;101809.44;;;1.51;71.07
76653;BME280;65563;45.970;12.680;2023-02-01T04:02:32;101811.44;;;1.48;70.85
76653;BME280;65563;45.970;12.680;2023-02-01T04:03:32;101816.03;;;1.44;71.74
76653;BME280;65563;45.970;12.680;2023-02-01T04:04:33;101816.25;;;1.41;71.26
76653;BME280;65563;45.970;12.680;2023-02-01T04:05:34;101819.78;;;1.40;71.44
76653;BME280;65563;45.970;12.680;2023-02-01T04:06:34;101817.91;;;1.42;71.80
76653;BME280;65563;45.970;12.680;2023-02-01T04:07:34;101822.91;;;1.32;72.19
76653;BME280;65563;45.970;12.680;2023-02-01T04:08:34;101819.78;;;1.40;71.82
76653;BME280;65563;45.970;12.680;2023-02-01T04:09:34;101818.09;;;1.39;72.17
76653;BME280;65563;45.970;12.680;2023-02-01T04:10:34;101825.22;;;1.37;72.02
76653;BME280;65563;45.970;12.680;2023-02-01T04:11:35;101813.06;;;1.36;72.00
76653;BME280;65563;45.970;12.680;2023-02-01T04:12:35;101822.81;;;1.34;72.65
76653;BME280;65563;45.970;12.680;2023-02-01T04:13:35;101823.53;;;1.36;72.41
76653;BME280;65563;45.970;12.680;2023-02-01T04:14:35;101818.53;;;1.46;72.13
76653;BME280;65563;45.970;12.680;2023-02-01T04:15:35;101817.19;;;1.53;71.61
76653;BME280;65563;45.970;12.680;2023-02-01T04:16:36;101826.91;;;1.51;71.24
76653;BME280;65563;45.970;12.680;2023-02-01T04:17:36;101821.03;;;1.47;71.64
76653;BME280;65563;45.970;12.680;2023-02-01T04:18:36;101823.13;;;1.42;71.40
76653;BME280;65563;45.970;12.680;2023-02-01T04:19:36;101821.19;;;1.58;71.85
76653;BME280;65563;45.970;12.680;2023-02-01T04:20:36;101821.91;;;1.60;71.57
76653;BME280;65563;45.970;12.680;2023-02-01T04:21:37;101811.94;;;1.53;71.85
76653;BME280;65563;45.970;12.680;2023-02-01T04:22:37;101815.00;;;1.59;71.66
76653;BME280;65563;45.970;12.680;2023-02-01T04:23:37;101818.00;;;1.53;71.70
76653;BME280;65563;45.970;12.680;2023-02-01T04:24:37;101821.03;;;1.47;71.23
76653;BME280;65563;45.970;12.680;2023-02-01T04:25:38;101816.88;;;1.57;72.01
76653;BME280;65563;45.970;12.680;2023-02-01T04:26:38;101820.00;;;1.50;72.00
76653;BME280;65563;45.970;12.680;2023-02-01T04:27:38;101827.31;;;1.32;71.77
76653;BME280;65563;45.970;12.680;2023-02-01T04:28:38;101816.63;;;1.35;71.98
76653;BME280;65563;45.970;12.680;2023-02-01T04:29:39;101817.59;;;1.47;72.00
76653;BME280;65563;45.970;12.680;2023-02-01T04:30:39;101822.53;;;1.51;71.75
76653;BME280;65563;45.970;12.680;2023-02-01T04:31:39;101819.97;;;1.37;71.47
76653;BME280;65563;45.970;12.680;2023-02-01T04:32:39;101823.66;;;1.34;71.69
76653;BME280;65563;45.970;12.680;2023-02-01T04:33:40;101816.31;;;1.39;72.45
76653;BME280;65563;45.970;12.680;2023-02-01T04:34:40;101820.94;;;1.49;72.00
76653;BME280;65563;45.970;12.680;2023-02-01T04:35:40;101818.13;;;1.52;72.04
76653;BME280;65563;45.970;12.680;2023-02-01T04:36:40;101821.91;;;1.60;72.05
76653;BME280;65563;45.970;12.680;2023-02-01T04:37:41;101819.56;;;1.43;71.58
76653;BME280;65563;45.970;12.680;2023-02-01T04:38:41;101818.09;;;1.39;72.20
76653;BME280;65563;45.970;12.680;2023-02-01T04:39:41;101819.91;;;1.51;72.59
76653;BME280;65563;45.970;12.680;2023-02-01T04:40:41;101821.47;;;1.41;72.01
76653;BME280;65563;45.970;12.680;2023-02-01T04:41:41;101823.25;;;1.53;71.98
76653;BME280;65563;45.970;12.680;2023-02-01T04:42:41;101824.72;;;1.45;72.18
76653;BME280;65563;45.970;12.680;2023-02-01T04:43:42;101820.13;;;1.48;72.60
76653;BME280;65563;45.970;12.680;2023-02-01T04:44:42;101825.03;;;1.53;72.47
76653;BME280;65563;45.970;12.680;2023-02-01T04:45:46;101817.16;;;1.40;73.03
76653;BME280;65563;45.970;12.680;2023-02-01T04:46:46;101818.13;;;1.52;72.58
76653;BME280;65563;45.970;12.680;2023-02-01T04:47:46;101820.22;;;1.59;72.37
76653;BME280;65563;45.970;12.680;2023-02-01T04:48:46;101821.69;;;1.63;72.76
76653;BME280;65563;45.970;12.680;2023-02-01T04:49:47;101819.28;;;1.60;72.42
76653;BME280;65563;45.970;12.680;2023-02-01T04:50:48;101826.81;;;1.65;72.74
76653;BME280;65563;45.970;12.680;2023-02-01T04:51:48;101820.75;;;1.64;72.53
76653;BME280;65563;45.970;12.680;2023-02-01T04:52:48;101823.69;;;1.60;73.03
76653;BME280;65563;45.970;12.680;2023-02-01T04:53:48;101824.41;;;1.75;72.86
76653;BME280;65563;45.970;12.680;2023-02-01T04:54:49;101825.66;;;1.82;72.49
76653;BME280;65563;45.970;12.680;2023-02-01T04:55:49;101821.59;;;1.78;71.88
76653;BME280;65563;45.970;12.680;2023-02-01T04:56:49;101829.66;;;1.75;72.02
76653;BME280;65563;45.970;12.680;2023-02-01T04:57:49;101825.03;;;1.78;72.82
76653;BME280;65563;45.970;12.680;2023-02-01T04:58:49;101829.03;;;1.84;72.71
76653;BME280;65563;45.970;12.680;2023-02-01T04:59:49;101829.03;;;1.84;72.47
76653;BME280;65563;45.970;12.680;2023-02-01T05:00:49;101818.56;;;1.84;72.93
76653;BME280;65563;45.970;12.680;2023-02-01T05:01:50;101822.13;;;1.83;73.47
76653;BME280;65563;45.970;12.680;2023-02-01T05:02:50;101825.47;;;1.85;72.81
76653;BME280;65563;45.970;12.680;2023-02-01T05:03:50;101819.81;;;1.78;73.65
76653;BME280;65563;45.970;12.680;2023-02-01T05:04:51;101829.03;;;1.84;73.12
76653;BME280;65563;45.970;12.680;2023-02-01T05:05:51;101823.38;;;1.90;73.37
76653;BME280;65563;45.970;12.680;2023-02-01T05:06:51;101824.50;;;1.86;73.60
76653;BME280;65563;45.970;12.680;2023-02-01T05:07:51;101825.88;;;1.79;73.91
76653;BME280;65563;45.970;12.680;2023-02-01T05:08:51;101826.31;;;1.73;74.39
76653;BME280;65563;45.970;12.680;2023-02-01T05:09:51;101827.03;;;1.87;74.01
76653;BME280;65563;45.970;12.680;2023-02-01T05:10:51;101822.31;;;1.92;74.06
76653;BME280;65563;45.970;12.680;2023-02-01T05:11:52;101820.84;;;2.01;73.70
76653;BME280;65563;45.970;12.680;2023-02-01T05:12:52;101822.19;;;2.07;73.62
76653;BME280;65563;45.970;12.680;2023-02-01T05:13:52;101818.72;;;2.06;73.15
76653;BME280;65563;45.970;12.680;2023-02-01T05:14:52;101820.44;;;2.07;73.04
76653;BME280;65563;45.970;12.680;2023-02-01T05:15:52;101819.97;;;2.13;73.21
76653;BME280;65563;45.970;12.680;2023-02-01T05:16:52;101810.56;;;2.11;73.57
76653;BME280;65563;45.970;12.680;2023-02-01T05:17:53;101813.28;;;2.09;73.37
76653;BME280;65563;45.970;12.680;2023-02-01T05:18:53;101816.03;;;1.95;73.32
76653;BME280;65563;45.970;12.680;2023-02-01T05:19:53;101819.69;;;2.05;73.79
76653;BME280;65563;45.970;12.680;2023-02-01T05:20:53;101822.09;;;2.08;73.70
76653;BME280;65563;45.970;12.680;2023-02-01T05:21:53;101822.31;;;2.05;74.09
76653;BME280;65563;45.970;12.680;2023-02-01T05:22:54;101814.22;;;2.08;73.46
76653;BME280;65563;45.970;12.680;2023-02-01T05:23:54;101806.16;;;2.11;73.65
76653;BME280;65563;45.970;12.680;2023-02-01T05:24:54;101804.47;;;2.10;73.55
76653;BME280;65563;45.970;12.680;2023-02-01T05:25:58;101812.78;;;2.04;73.43
76653;BME280;65563;45.970;12.680;2023-02-01T05:26:58;101826.91;;;2.02;73.74
76653;BME280;65563;45.970;12.680;2023-02-01T05:27:58;101826.16;;;2.12;73.96
76653;BME280;65563;45.970;12.680;2023-02-01T05:28:58;101817.88;;;2.19;73.31
76653;BME280;65563;45.970;12.680;2023-02-01T05:31:17;101814.84;;;2.12;73.44
76653;BME280;65563;45.970;12.680;2023-02-01T05:32:17;101813.50;;;2.06;73.45
76653;BME280;65563;45.970;12.680;2023-02-01T05:33:17;101815.19;;;2.07;73.66
76653;BME280;65563;45.970;12.680;2023-02-01T05:34:18;101816.19;;;2.18;73.28
76653;BME280;65563;45.970;12.680;2023-02-01T05:35:18;101823.84;;;2.21;73.02
76653;BME280;65563;45.970;12.680;2023-02-01T05:36:18;101824.25;;;2.27;73.06
76653;BME280;65563;45.970;12.680;2023-02-01T05:37:19;101824.38;;;2.26;72.59
76653;BME280;65563;45.970;12.680;2023-02-01T05:38:19;101823.22;;;2.30;72.29
76653;BME280;65563;45.970;12.680;2023-02-01T05:39:19;101819.13;;;2.26;72.50
76653;BME280;65563;45.970;12.680;2023-02-01T05:40:19;101816.19;;;2.18;73.40
76653;BME280;65563;45.970;12.680;2023-02-01T05:41:19;101812.44;;;2.22;73.18
76653;BME280;65563;45.970;12.680;2023-02-01T05:42:20;101819.97;;;2.26;72.97
76653;BME280;65563;45.970;12.680;2023-02-01T05:43:20;101822.16;;;2.32;72.45
76653;BME280;65563;45.970;12.680;2023-02-01T05:44:20;101812.38;;;2.34;72.49
76653;BME280;65563;45.970;12.680;2023-02-01T05:45:20;101816.91;;;2.32;72.13
76653;BME280;65563;45.970;12.680;2023-02-01T05:46:20;101812.72;;;2.30;72.29
76653;BME280;65563;45.970;12.680;2023-02-01T05:47:20;101813.78;;;2.27;72.31
76653;BME280;65563;45.970;12.680;2023-02-01T05:48:21;101803.41;;;2.26;72.65
76653;BME280;65563;45.970;12.680;2023-02-01T05:49:21;101811.06;;;2.29;72.45
76653;BME280;65563;45.970;12.680;2023-02-01T05:50:21;101807.81;;;2.25;72.01
76653;BME280;65563;45.970;12.680;2023-02-01T05:51:21;101816.19;;;2.30;72.23
76653;BME280;65563;45.970;12.680;2023-02-01T05:52:21;101818.38;;;2.24;72.42
76653;BME280;65563;45.970;12.680;2023-02-01T05:53:21;101809.59;;;2.25;72.75
76653;BME280;65563;45.970;12.680;2023-02-01T05:54:22;101818.09;;;2.28;72.77
76653;BME280;65563;45.970;12.680;2023-02-01T05:55:22;101823.31;;;2.28;72.73